Latest Weather Observations for Murganella Airstrip

IDD60801

Issued at 3:35 pm CST Wednesday 22 October 2014 (issued every 30 minutes, with the page automatically refreshed every 10 minutes)

About weather observations | Map of weather stations | Latest weather observations for NT | Other Formats
Station Details ID: 014309 Name: MURGANELLA AIRSTRIP Lat: -11.55 Lon: 132.93 Height: 9.5 m
Data from the previous 72 hours. | See also: Recent months for locations in Northern Territory
Date/Time
CST
Temp
°C
App
Temp
°C
Dew
Point
Rel
Hum
%
Delta-T
°C
Wind Press
QNH
hPa
Press
MSL
hPa
Rain
since 9 am
mm
Dir
 
Spd
km/h
Gust
km/h
Spd
kts
Gust
kts
22/03:30pm 30.3 30.4 20.0 54 6.8 ENE 19 32 10 17 1010.7 1010.6 0.0
22/03:00pm 31.1 32.5 21.0 55 6.8 ENE 15 28 8 15 1011.0 1010.9 0.0
22/02:30pm 31.8 33.7 21.3 53 7.1 ENE 13 22 7 12 1011.1 1011.0 0.0
22/02:00pm 31.7 33.0 20.9 52 7.2 NE 15 30 8 16 1011.3 1011.2 0.0
22/01:30pm 32.1 33.5 20.4 50 7.8 NE 13 28 7 15 1011.8 1011.7 0.0
22/01:00pm 32.8 35.6 21.6 51 7.6 NE 9 15 5 8 1012.5 1012.4 0.0
22/12:30pm 31.2 32.6 21.1 55 6.8 NE 15 26 8 14 1013.2 1013.1 0.0
22/12:00pm 31.2 32.8 20.8 54 6.9 ENE 13 22 7 12 1013.6 1013.5 0.0
22/11:30am 32.0 33.0 20.3 50 7.8 ENE 15 20 8 11 1014.1 1014.0 0.0
22/11:00am 31.1 32.5 21.0 55 6.8 E 15 24 8 13 1014.6 1014.5 0.0
22/10:30am 30.8 32.8 20.7 55 6.7 E 11 20 6 11 1014.8 1014.7 0.0
22/10:00am 30.9 32.9 20.8 55 6.7 E 11 20 6 11 1015.0 1014.9 0.0
22/09:30am 29.6 33.1 22.8 67 4.6 ENE 9 17 5 9 1015.0 1014.9 0.0
22/09:00am 29.5 33.8 23.7 71 4.0 E 7 17 4 9 1015.0 1014.9 0.0
22/08:30am 27.8 32.9 24.0 80 2.6 SSE 4 7 2 4 1015.0 1014.9 0.0
22/08:00am 25.7 30.6 23.7 89 1.4 SE 4 7 2 4 1014.9 1014.8 0.0
22/07:30am 23.9 28.8 23.7 99 0.1 S 4 4 2 2 1014.5 1014.4 0.0
22/07:00am 21.8 26.3 21.6 99 0.1 CALM 0 0 0 0 1014.4 1014.3 0.0
22/06:30am 20.9 25.0 20.7 99 0.1 CALM 0 0 0 0 1013.9 1013.8 0.0
22/06:00am 20.8 24.8 20.6 99 0.1 S 0 0 0 0 1013.5 1013.4 0.0
22/05:30am 20.6 24.5 20.4 99 0.1 CALM 0 0 0 0 1013.2 1013.1 0.0
22/05:00am 20.8 24.8 20.5 98 0.2 CALM 0 0 0 0 1012.8 1012.7 0.0
22/04:30am 21.0 25.0 20.5 97 0.3 WSW 0 0 0 0 1012.8 1012.7 0.0
22/04:00am 21.5 25.6 20.8 96 0.5 CALM 0 0 0 0 1012.7 1012.6 0.0
22/03:30am 22.0 26.2 21.7 98 0.2 SW 2 4 1 2 1013.0 1012.9 0.0
22/03:00am 21.9 26.3 21.4 97 0.3 CALM 0 0 0 0 1013.0 1012.9 0.0
22/02:30am 21.8 26.1 21.1 96 0.5 CALM 0 0 0 0 1013.3 1013.2 0.0
22/02:00am 21.9 26.3 21.4 97 0.3 CALM 0 0 0 0 1013.4 1013.3 0.0
22/01:30am 21.9 26.0 21.6 98 0.2 S 2 6 1 3 1013.6 1013.5 0.0
22/01:00am 21.9 26.3 21.4 97 0.3 CALM 0 0 0 0 1014.0 1013.9 0.0
22/12:30am 21.9 26.2 21.1 95 0.5 CALM 0 0 0 0 1014.3 1014.2 0.0
22/12:00am 22.1 26.5 21.3 95 0.5 ENE 0 0 0 0 1014.3 1014.2 0.0
 
Date/Time
CST
Temp
°C
App
Temp
°C
Dew
Point
Rel
Hum
%
Delta-T
°C
Wind Press
QNH
hPa
Press
MSL
hPa
Rain
since 9 am
mm
Dir
 
Spd
km/h
Gust
km/h
Spd
kts
Gust
kts
21/11:30pm 22.4 26.8 21.4 94 0.7 CALM 0 0 0 0 1014.3 1014.2 0.0
21/11:00pm 22.8 27.3 21.6 93 0.8 N 0 0 0 0 1014.5 1014.4 0.0
21/10:30pm 23.2 27.8 21.8 92 0.9 CALM 0 0 0 0 1014.5 1014.4 0.0
21/10:00pm 23.5 28.0 21.6 89 1.3 CALM 0 0 0 0 1014.2 1014.1 0.0
21/09:30pm 23.9 28.6 22.0 89 1.3 CALM 0 0 0 0 1013.9 1013.8 0.0
21/09:00pm 24.3 29.1 22.2 88 1.4 CALM 0 0 0 0 1013.7 1013.6 0.0
21/08:30pm 25.1 30.0 22.4 85 1.8 CALM 0 0 0 0 1013.5 1013.4 0.0
21/08:00pm 25.6 30.7 22.7 84 2.0 CALM 0 0 0 0 1013.2 1013.1 0.0
21/07:30pm 26.2 31.1 23.1 83 2.1 NNE 2 4 1 2 1012.9 1012.8 0.0
21/07:00pm 26.6 30.7 22.9 80 2.5 N 6 13 3 7 1012.6 1012.5 0.0
21/06:30pm 27.1 30.2 22.9 78 2.9 NNE 11 20 6 11 1012.3 1012.2 0.0
21/06:00pm 27.8 30.7 22.5 73 3.6 NE 11 28 6 15 1012.0 1011.9 0.0
21/05:30pm 28.5 30.0 21.3 65 4.8 NE 15 30 8 16 1011.7 1011.6 0.0
21/05:00pm 29.4 30.7 20.8 60 5.7 NNE 15 32 8 17 1011.6 1011.5 0.0
21/04:30pm 29.8 29.4 18.9 52 7.1 NE 19 32 10 17 1011.5 1011.4 0.0
21/04:00pm 30.8 30.9 19.2 50 7.6 NE 17 26 9 14 1011.4 1011.3 0.0
21/03:30pm 30.9 29.9 17.6 45 8.5 ENE 19 30 10 16 1011.5 1011.4 0.0
21/03:00pm 31.5 31.9 18.1 44 8.6 NE 13 24 7 13 1011.9 1011.8 0.0
21/02:30pm 31.5 31.2 17.4 43 9.0 ENE 15 30 8 16 1012.2 1012.1 0.0
21/02:00pm 31.5 31.8 18.8 46 8.3 NE 15 22 8 12 1012.6 1012.5 0.0
21/01:30pm 32.4 32.6 18.6 44 9.0 NE 15 28 8 15 1012.8 1012.7 0.0
21/01:00pm 32.6 32.4 17.6 40 9.6 ENE 15 24 8 13 1013.4 1013.3 0.0
21/12:30pm 33.1 32.1 14.7 33 11.3 ENE 13 20 7 11 1014.0 1013.9 0.0
21/12:00pm 32.2 31.8 16.1 38 10.1 ENE 13 22 7 12 1014.6 1014.5 0.0
21/11:30am 32.4 32.7 17.8 41 9.4 E 13 24 7 13 1015.0 1014.9 0.0
21/11:00am 31.7 31.5 16.8 40 9.4 NE 13 30 7 16 1015.2 1015.1 0.0
21/10:30am 31.8 31.4 16.1 38 9.8 ENE 13 24 7 13 1015.4 1015.3 0.0
21/10:00am 31.1 33.2 20.1 52 7.3 ENE 9 17 5 9 1015.5 1015.4 0.0
21/09:30am 30.5 31.9 19.5 51 7.2 ENE 11 17 6 9 1015.5 1015.4 0.0
21/09:00am 29.9 31.9 19.9 55 6.6 E 9 20 5 11 1015.4 1015.3 0.0
21/08:30am 29.3 31.5 20.5 59 5.8 NE 9 17 5 9 1015.3 1015.2 0.0
21/08:00am 28.4 32.3 21.9 68 4.4 ENE 4 11 2 6 1014.9 1014.8 0.0
21/07:30am 26.4 32.1 23.7 85 1.8 CALM 0 0 0 0 1014.6 1014.5 0.0
21/07:00am 22.8 27.6 22.1 96 0.5 CALM 0 0 0 0 1014.2 1014.1 0.0
21/06:30am 21.5 25.6 20.7 95 0.5 CALM 0 0 0 0 1014.2 1014.1 0.0
21/06:00am 21.7 25.6 20.3 92 0.9 CALM 0 0 0 0 1013.7 1013.6 0.0
21/05:30am 22.3 26.2 20.4 89 1.2 CALM 0 6 0 3 1013.5 1013.4 0.0
21/05:00am 23.9 28.1 21.0 84 1.9 CALM 0 0 0 0 1013.6 1013.5 0.0
21/04:30am 25.0 29.4 22.1 84 1.9 E 2 4 1 2 1013.3 1013.2 0.0
21/04:00am 25.3 29.5 22.4 84 1.9 E 4 6 2 3 1013.2 1013.1 0.0
21/03:30am 25.6 29.6 22.1 81 2.3 E 4 7 2 4 1013.1 1013.0 0.0
21/03:00am 25.9 29.8 21.8 78 2.7 E 4 11 2 6 1013.1 1013.0 0.0
21/02:30am 26.2 29.2 21.2 74 3.3 ENE 7 15 4 8 1013.2 1013.1 0.0
21/02:00am 26.4 29.4 20.9 72 3.6 E 6 13 3 7 1013.4 1013.3 0.0
21/01:30am 26.4 29.4 21.2 73 3.4 E 7 15 4 8 1013.6 1013.5 0.0
21/01:00am 26.2 29.9 22.3 79 2.6 E 6 13 3 7 1013.8 1013.7 0.0
21/12:30am 26.5 30.2 22.6 79 2.6 ENE 7 15 4 8 1013.9 1013.8 0.0
21/12:00am 26.6 30.1 23.5 83 2.1 ENE 11 19 6 10 1014.0 1013.9 0.0
 
Date/Time
CST
Temp
°C
App
Temp
°C
Dew
Point
Rel
Hum
%
Delta-T
°C
Wind Press
QNH
hPa
Press
MSL
hPa
Rain
since 9 am
mm
Dir
 
Spd
km/h
Gust
km/h
Spd
kts
Gust
kts
20/11:30pm 26.6 30.2 23.7 84 2.0 ENE 11 22 6 12 1014.2 1014.1 0.0
20/11:00pm 26.6 30.1 23.5 83 2.1 ENE 11 19 6 10 1014.1 1014.0 0.0
20/10:30pm 25.9 30.3 23.8 88 1.4 ENE 7 13 4 7 1014.1 1014.0 0.0
20/10:00pm 24.8 29.3 22.9 89 1.3 ENE 4 6 2 3 1013.8 1013.7 0.0
20/09:30pm 24.5 28.7 21.8 85 1.8 NE 2 4 1 2 1013.2 1013.1 0.0
20/09:00pm 24.7 29.2 22.2 86 1.7 NE 2 4 1 2 1012.9 1012.8 0.0
20/08:30pm 25.0 29.8 22.1 84 1.9 CALM 0 0 0 0 1012.6 1012.5 0.0
20/08:00pm 25.7 30.4 22.6 83 2.1 NE 2 4 1 2 1012.3 1012.2 0.0
20/07:30pm 26.2 31.5 23.1 83 2.1 CALM 0 4 0 2 1011.9 1011.8 0.0
20/07:00pm 26.6 30.8 23.1 81 2.4 NNE 6 9 3 5 1011.5 1011.4 0.0
20/06:30pm 27.0 29.6 22.6 77 3.0 NE 13 24 7 13 1011.1 1011.0 0.0
20/06:00pm 27.6 30.5 22.5 74 3.5 NE 11 22 6 12 1010.8 1010.7 0.0
20/05:30pm 28.2 30.5 22.0 69 4.2 NE 13 24 7 13 1010.6 1010.5 0.0
20/05:00pm 28.6 29.4 21.4 65 4.8 NNE 19 28 10 15 1010.3 1010.2 0.0
20/04:30pm 29.9 31.3 21.0 59 5.9 NE 15 35 8 19 1010.3 1010.2 0.0
20/04:00pm 30.2 30.5 19.6 53 6.9 NE 17 33 9 18 1010.3 1010.2 0.0
20/03:30pm 31.0 31.0 19.0 48 7.8 ENE 17 32 9 17 1010.5 1010.4 0.0
20/03:00pm 31.1 31.2 19.1 48 7.8 ENE 17 33 9 18 1010.9 1010.8 0.0
20/02:30pm 31.4 30.9 18.7 46 8.2 ENE 19 28 10 15 1011.2 1011.1 0.0
20/02:00pm 32.4 32.4 18.9 44 8.8 NE 17 30 9 16 1011.6 1011.5 0.0
20/01:30pm 32.4 31.1 15.8 36 10.4 ENE 17 30 9 16 1012.0 1011.9 0.0
20/01:00pm 32.5 31.1 15.5 36 10.6 ENE 17 32 9 17 1012.5 1012.4 0.0
20/12:30pm 32.7 32.5 17.7 40 9.6 E 15 24 8 13 1013.1 1013.0 0.0
20/12:00pm 31.6 30.4 17.5 43 9.0 NE 20 30 11 16 1013.7 1013.6 0.0
20/11:30am 31.1 29.9 17.0 42 8.9 E 19 32 10 17 1014.3 1014.2 0.0
20/11:00am 31.2 31.6 18.2 46 8.4 E 13 20 7 11 1014.5 1014.4 0.0
20/10:30am 30.8 30.5 18.2 47 8.1 E 17 30 9 16 1014.7 1014.6 0.0
20/10:00am 30.3 31.7 21.1 58 6.1 E 15 28 8 15 1015.0 1014.9 0.0
20/09:30am 28.6 30.8 21.9 67 4.5 ENE 13 22 7 12 1014.9 1014.8 0.0
20/09:00am 27.5 29.9 21.5 70 4.0 E 11 19 6 10 1014.8 1014.7 0.0
20/08:30am 27.2 30.0 21.5 71 3.8 E 9 19 5 10 1014.8 1014.7 0.0
20/08:00am 26.0 28.5 21.0 74 3.3 SE 9 15 5 8 1015.0 1014.9 0.0
20/07:30am 25.4 27.7 21.3 78 2.7 SE 11 17 6 9 1014.6 1014.5 0.0
20/07:00am 24.6 28.6 22.1 86 1.7 SE 4 6 2 3 1014.1 1014.0 0.0
20/06:30am 24.7 28.2 21.8 84 1.9 SE 6 7 3 4 1013.8 1013.7 0.0
20/06:00am 25.0 28.9 22.5 86 1.7 ESE 6 9 3 5 1013.5 1013.4 0.0
20/05:30am 25.2 29.4 22.5 85 1.8 ESE 4 7 2 4 1013.1 1013.0 0.0
20/05:00am 26.0 30.1 22.9 83 2.1 SE 6 11 3 6 1013.0 1012.9 0.0
20/04:30am 26.2 30.5 23.3 84 2.0 ESE 6 13 3 7 1012.6 1012.5 0.0
20/04:00am 26.3 30.2 23.0 82 2.2 E 7 11 4 6 1012.4 1012.3 0.0
20/03:30am 26.2 30.2 23.1 83 2.1 E 7 15 4 8 1012.3 1012.2 0.0
20/03:00am 26.1 30.3 23.4 85 1.8 E 7 11 4 6 1012.2 1012.1 0.0
20/02:30am 26.1 29.9 23.4 85 1.8 ENE 9 17 5 9 1012.3 1012.2 0.0
20/02:00am 26.3 30.5 23.4 84 2.0 E 7 15 4 8 1012.7 1012.6 0.0
20/01:30am 26.5 30.1 23.0 81 2.4 E 9 20 5 11 1012.9 1012.8 0.0
20/01:00am 26.8 30.3 23.5 82 2.3 E 11 22 6 12 1013.1 1013.0 0.0
20/12:30am 26.7 30.1 23.4 82 2.3 ENE 11 19 6 10 1013.2 1013.1 0.0
20/12:00am 26.7 30.6 23.6 83 2.1 ENE 9 17 5 9 1013.6 1013.5 0.0
 
Date/Time
CST
Temp
°C
App
Temp
°C
Dew
Point
Rel
Hum
%
Delta-T
°C
Wind Press
QNH
hPa
Press
MSL
hPa
Rain
since 9 am
mm
Dir
 
Spd
km/h
Gust
km/h
Spd
kts
Gust
kts
19/11:30pm 26.7 30.7 23.8 84 2.0 ENE 9 15 5 8 1013.8 1013.7 0.0
19/11:00pm 26.8 31.3 23.9 84 2.0 ENE 7 15 4 8 1013.9 1013.8 0.0
19/10:30pm 26.9 31.3 23.8 83 2.1 ENE 7 17 4 9 1013.9 1013.8 0.0
19/10:00pm 26.8 30.8 23.7 83 2.1 NE 9 20 5 11 1013.5 1013.4 0.0
19/09:30pm 26.8 30.0 23.7 83 2.1 ENE 13 28 7 15 1013.1 1013.0 0.0
19/09:00pm 26.8 30.4 23.7 83 2.1 ENE 11 26 6 14 1012.7 1012.6 0.0
19/08:30pm 26.8 30.4 23.7 83 2.1 NE 11 26 6 14 1012.4 1012.3 0.0
19/08:00pm 26.9 30.8 23.6 82 2.3 NE 9 22 5 12 1011.9 1011.8 0.0
19/07:30pm 26.9 30.0 22.9 79 2.7 NE 11 19 6 10 1011.5 1011.4 0.0
19/07:00pm 27.1 30.3 23.1 79 2.7 NE 11 22 6 12 1011.3 1011.2 0.0
19/06:30pm 27.5 30.5 22.7 75 3.3 NE 11 22 6 12 1011.0 1010.9 0.0
19/06:00pm 28.0 30.6 22.0 70 4.0 NE 11 19 6 10 1010.8 1010.7 0.0
19/05:30pm 29.0 32.1 22.2 66 4.6 NE 9 17 5 9 1010.6 1010.5 0.0
19/05:00pm 29.0 30.3 21.7 64 4.9 NE 17 30 9 16 1010.6 1010.5 0.0
19/04:30pm 29.7 30.6 21.9 63 5.3 NE 20 35 11 19 1010.6 1010.5 0.0
19/04:00pm 30.3 31.7 21.9 60 5.7 ENE 17 30 9 16 1010.7 1010.6 0.0

Other Formats:

Comma delimited format used in spreadsheet applications
http://www.bom.gov.au/fwo/IDD60801/IDD60801.94109.axf

JavaScript Object Notation format (JSON) in row-major order
http://www.bom.gov.au/fwo/IDD60801/IDD60801.94109.json